Time;durP1;ratioP1;P1;durP2;ratioP2;P2;SDS_P1;SDS_P2;PMS_P1;PMS_P2;Temp;Humidity;BMP_temperature;BMP_pressure;BME280_temperature;BME280_humidity;BME280_pressure;Samples;Min_cycle;Max_cycle;Signal;HPM_P1;HPM_P2
2023/12/01 00:02:14;;;;;;;24.47;17.50;;;;;;;2.12;100.00;146757.00;5001675;28;20215;-54
2023/12/01 00:04:40;;;;;;;37.17;23.80;;;;;;;2.11;100.00;146754.59;5004805;28;20676;-53
2023/12/01 00:07:07;;;;;;;27.83;17.43;;;;;;;2.11;100.00;146754.59;5000495;28;20228;-52
2023/12/01 00:09:33;;;;;;;25.57;16.97;;;;;;;2.11;100.00;146753.31;5003005;28;20224;-52
2023/12/01 00:12:00;;;;;;;29.23;18.00;;;;;;;2.08;100.00;146747.16;5000870;28;20235;-55
2023/12/01 00:14:27;;;;;;;28.63;18.10;;;;;;;2.08;100.00;146745.91;5003096;28;20231;-56
2023/12/01 00:16:55;;;;;;;25.93;18.17;;;;;;;2.02;100.00;146732.28;5002148;28;20455;-53
2023/12/01 00:19:21;;;;;;;24.63;15.90;;;;;;;1.94;100.00;146713.69;5002046;28;20224;-52
2023/12/01 00:21:48;;;;;;;27.40;16.33;;;;;;;1.85;100.00;146691.41;5003757;28;20243;-52
2023/12/01 00:24:15;;;;;;;27.07;16.80;;;;;;;1.85;100.00;146692.69;5000193;28;20236;-52
2023/12/01 00:26:42;;;;;;;29.20;16.87;;;;;;;1.87;100.00;146697.63;5003503;28;20217;-55
2023/12/01 00:29:08;;;;;;;27.03;17.63;;;;;;;1.87;100.00;146697.63;5001450;28;20232;-55
2023/12/01 00:31:35;;;;;;;28.37;18.77;;;;;;;1.89;100.00;146702.59;5002425;28;20232;-55
2023/12/01 00:34:03;;;;;;;26.13;16.63;;;;;;;1.94;100.00;146712.50;4999378;28;20244;-53
2023/12/01 00:36:31;;;;;;;26.57;16.60;;;;;;;1.96;100.00;146717.44;4978563;28;20231;-51
2023/12/01 00:38:57;;;;;;;28.90;15.97;;;;;;;1.97;100.00;146721.13;4999300;28;20716;-55
2023/12/01 00:41:24;;;;;;;25.20;15.63;;;;;;;1.96;100.00;146717.44;4987389;28;20243;-53
2023/12/01 00:43:51;;;;;;;29.83;15.77;;;;;;;1.94;100.00;146713.69;5004095;28;20233;-53
2023/12/01 00:46:18;;;;;;;29.57;16.73;;;;;;;1.93;100.00;146711.22;5002191;28;20235;-55
2023/12/01 00:48:44;;;;;;;25.30;15.63;;;;;;;1.92;100.00;146708.75;5004573;28;20224;-54
2023/12/01 00:51:16;;;;;;;26.27;15.83;;;;;;;1.94;100.00;146713.69;4983188;28;20228;-55
2023/12/01 00:53:43;;;;;;;26.07;14.90;;;;;;;1.95;100.00;146714.97;5004598;28;20228;-55
2023/12/01 00:56:10;;;;;;;26.83;16.90;;;;;;;1.95;100.00;146716.19;4985138;28;20315;-55
2023/12/01 00:58:37;;;;;;;26.90;15.93;;;;;;;1.96;100.00;146717.44;5007326;28;20717;-55
2023/12/01 01:01:05;;;;;;;26.80;16.40;;;;;;;1.95;100.00;146716.19;4988796;28;21163;-54
2023/12/01 01:03:32;;;;;;;26.63;15.87;;;;;;;1.94;100.00;146713.69;5006967;28;20229;-53
2023/12/01 01:05:58;;;;;;;24.07;16.23;;;;;;;1.99;100.00;146724.88;4987511;28;20323;-55
2023/12/01 01:08:26;;;;;;;27.40;15.37;;;;;;;1.99;100.00;146724.88;4990466;28;20228;-53
2023/12/01 01:10:54;;;;;;;26.77;15.20;;;;;;;1.98;100.00;146722.38;5006855;28;20232;-52
2023/12/01 01:13:20;;;;;;;29.37;16.37;;;;;;;1.97;100.00;146719.91;5005416;28;20324;-55
2023/12/01 01:15:47;;;;;;;26.63;14.77;;;;;;;2.01;100.00;146731.03;4990287;28;20234;-54
2023/12/01 01:18:14;;;;;;;23.77;14.70;;;;;;;2.04;100.00;146738.47;4987531;28;20244;-53
2023/12/01 01:20:40;;;;;;;25.70;15.33;;;;;;;1.93;100.00;146711.22;4980027;28;20614;-55
2023/12/01 01:23:07;;;;;;;27.07;15.90;;;;;;;1.94;100.00;146713.69;5002796;28;20228;-53
2023/12/01 01:25:35;;;;;;;25.17;15.17;;;;;;;1.98;100.00;146722.38;4982050;28;20311;-55
2023/12/01 01:28:01;;;;;;;26.30;15.90;;;;;;;1.95;100.00;146716.19;4975602;28;20232;-52
2023/12/01 01:30:28;;;;;;;24.17;15.27;;;;;;;2.00;100.00;146728.56;4990739;28;20244;-55
2023/12/01 01:32:55;;;;;;;24.93;15.70;;;;;;;1.97;100.00;146719.91;4989825;28;20820;-55
2023/12/01 01:35:21;;;;;;;25.00;15.07;;;;;;;1.96;100.00;146717.44;4987475;28;20228;-55
2023/12/01 01:37:48;;;;;;;27.73;15.03;;;;;;;1.84;100.00;146690.22;4990415;28;20286;-52
2023/12/01 01:40:15;;;;;;;26.83;15.17;;;;;;;1.79;100.00;146677.81;4987375;28;20701;-55
2023/12/01 01:42:43;;;;;;;26.67;15.03;;;;;;;1.79;100.00;146676.56;4986781;28;20262;-55
2023/12/01 01:45:10;;;;;;;22.67;15.47;;;;;;;1.68;100.00;146650.59;5002132;28;20228;-53
2023/12/01 01:47:37;;;;;;;25.10;15.20;;;;;;;1.69;100.00;146654.28;4990131;28;20626;-55
2023/12/01 01:50:07;;;;;;;29.20;16.77;;;;;;;1.68;100.00;146650.59;5003477;28;20220;-55
2023/12/01 01:52:36;;;;;;;29.23;15.50;;;;;;;1.71;100.00;146658.03;5007533;28;20239;-55
2023/12/01 01:55:03;;;;;;;27.43;16.00;;;;;;;1.63;100.00;146639.44;5004625;28;20248;-54
2023/12/01 01:57:36;;;;;;;28.70;16.17;;;;;;;1.61;100.00;146635.75;4989639;28;20250;-55
2023/12/01 02:00:08;;;;;;;26.57;16.67;;;;;;;1.66;100.00;146646.84;5002742;28;20243;-52
2023/12/01 02:02:40;;;;;;;28.80;15.80;;;;;;;1.65;100.00;146644.38;4989619;28;20378;-55
2023/12/01 02:05:13;;;;;;;24.70;16.03;;;;;;;1.70;100.00;146655.53;4986038;28;20711;-54
2023/12/01 02:07:40;;;;;;;27.47;16.07;;;;;;;1.68;100.00;146650.59;5005528;28;20240;-53
2023/12/01 02:10:15;;;;;;;28.33;16.67;;;;;;;1.67;100.00;146648.13;4990169;28;20240;-53
2023/12/01 02:12:43;;;;;;;27.97;15.77;;;;;;;1.69;100.00;146653.06;4989548;28;20731;-53
2023/12/01 02:15:11;;;;;;;24.73;15.10;;;;;;;1.67;100.00;146648.13;4986554;28;20224;-52
2023/12/01 02:17:38;;;;;;;26.47;15.50;;;;;;;1.68;100.00;146651.81;4989122;28;20283;-55
2023/12/01 02:20:06;;;;;;;26.43;15.57;;;;;;;1.69;100.00;146654.28;4994392;28;20220;-54
2023/12/01 02:22:35;;;;;;;25.63;15.60;;;;;;;1.69;100.00;146653.06;4994826;28;20291;-54
2023/12/01 02:25:01;;;;;;;25.50;16.37;;;;;;;1.71;100.00;146659.22;4976220;28;20244;-55
2023/12/01 02:27:28;;;;;;;26.60;16.47;;;;;;;1.74;100.00;146665.44;5005582;28;20235;-55
2023/12/01 02:29:55;;;;;;;25.60;16.43;;;;;;;1.76;100.00;146670.41;4981590;28;20231;-52
2023/12/01 02:32:22;;;;;;;28.33;15.87;;;;;;;1.75;100.00;146669.13;4986241;28;20284;-53
2023/12/01 02:34:48;;;;;;;29.23;16.67;;;;;;;1.82;100.00;146685.25;5005023;28;20228;-53
2023/12/01 02:37:15;;;;;;;25.73;15.43;;;;;;;1.72;100.00;146661.72;4986501;28;20222;-55
2023/12/01 02:39:43;;;;;;;21.47;14.20;;;;;;;1.69;100.00;146654.28;4979194;28;20224;-52
2023/12/01 02:42:09;;;;;;;23.37;15.27;;;;;;;1.62;100.00;146636.94;5000841;28;20322;-53
2023/12/01 02:44:36;;;;;;;29.57;15.23;;;;;;;1.64;100.00;146640.69;5003649;28;20247;-54
2023/12/01 02:47:02;;;;;;;24.53;15.27;;;;;;;1.66;100.00;146646.84;4988873;28;20243;-52
2023/12/01 02:49:29;;;;;;;21.63;14.50;;;;;;;1.68;100.00;146651.81;4991109;28;20712;-52
2023/12/01 02:51:56;;;;;;;24.90;15.37;;;;;;;1.67;100.00;146648.13;4988461;28;20255;-55
2023/12/01 02:54:22;;;;;;;25.00;14.53;;;;;;;1.66;100.00;146645.66;4986222;28;20231;-54
2023/12/01 02:56:50;;;;;;;25.87;15.07;;;;;;;1.66;100.00;146645.66;4988803;28;20230;-55
2023/12/01 02:59:17;;;;;;;26.27;14.53;;;;;;;1.64;100.00;146641.91;5003442;28;20232;-53
2023/12/01 03:01:44;;;;;;;24.23;14.17;;;;;;;1.67;100.00;146648.13;5005463;28;20225;-52
2023/12/01 03:04:10;;;;;;;23.50;14.23;;;;;;;1.65;100.00;146643.16;4984769;28;20236;-55
2023/12/01 03:06:37;;;;;;;22.63;14.30;;;;;;;1.61;100.00;146634.47;4988699;28;20236;-55
2023/12/01 03:09:04;;;;;;;22.33;13.13;;;;;;;1.61;100.00;146634.47;5002288;28;20619;-55
2023/12/01 03:11:30;;;;;;;23.03;14.23;;;;;;;1.64;100.00;146640.69;5006302;28;20299;-52
2023/12/01 03:13:58;;;;;;;23.83;13.70;;;;;;;1.59;100.00;146630.78;5004631;28;20297;-55
2023/12/01 03:16:25;;;;;;;24.03;14.23;;;;;;;1.60;100.00;146633.25;4985776;28;20236;-54
2023/12/01 03:18:51;;;;;;;23.53;14.60;;;;;;;1.54;100.00;146617.19;5003437;28;20224;-55
2023/12/01 03:21:18;;;;;;;21.23;14.53;;;;;;;1.61;100.00;146634.47;4985760;28;20228;-55
2023/12/01 03:23:44;;;;;;;21.97;13.47;;;;;;;1.61;100.00;146635.75;4980042;28;20592;-53
2023/12/01 03:26:16;;;;;;;25.37;14.30;;;;;;;1.58;100.00;146627.09;5003246;28;20316;-55
2023/12/01 03:28:43;;;;;;;24.93;15.07;;;;;;;1.55;100.00;146620.88;5004428;28;20239;-54
2023/12/01 03:31:11;;;;;;;22.63;13.40;;;;;;;1.53;100.00;146614.72;4975116;28;20237;-52
2023/12/01 03:33:37;;;;;;;21.20;12.43;;;;;;;1.56;100.00;146623.38;5003853;28;20230;-54
2023/12/01 03:36:05;;;;;;;24.57;14.17;;;;;;;1.55;100.00;146619.66;5003081;28;20234;-53
2023/12/01 03:38:32;;;;;;;18.23;13.00;;;;;;;1.57;100.00;146624.63;4986918;28;20243;-53
2023/12/01 03:41:00;;;;;;;21.53;14.37;;;;;;;1.58;100.00;146627.09;5000891;28;20232;-53
2023/12/01 03:43:27;;;;;;;20.67;13.80;;;;;;;1.58;100.00;146628.31;5005031;28;20236;-52
2023/12/01 03:45:53;;;;;;;21.30;13.47;;;;;;;1.57;100.00;146625.84;4989844;28;20229;-53
2023/12/01 03:48:21;;;;;;;20.87;13.13;;;;;;;1.60;100.00;146633.25;4985372;28;20710;-54
2023/12/01 03:50:50;;;;;;;20.60;13.03;;;;;;;1.60;100.00;146633.25;4987795;28;20232;-52
2023/12/01 03:53:17;;;;;;;15.67;11.47;;;;;;;1.59;100.00;146630.78;5002193;28;20232;-52
2023/12/01 03:55:44;;;;;;;20.20;12.20;;;;;;;1.60;100.00;146632.00;4987744;28;20216;-55
2023/12/01 03:58:10;;;;;;;17.13;11.83;;;;;;;1.61;100.00;146635.75;4973016;28;20236;-53
2023/12/01 04:04:10;;;;;;;18.60;11.50;;;;;;;1.60;100.00;146633.25;5774133;23;20322;-55
2023/12/01 04:06:38;;;;;;;18.13;11.50;;;;;;;1.67;100.00;146648.13;5033415;28;20697;-54
2023/12/01 04:09:05;;;;;;;22.00;13.13;;;;;;;1.66;100.00;146646.84;5024430;28;20226;-53
2023/12/01 04:11:32;;;;;;;16.97;11.93;;;;;;;1.70;100.00;146655.53;5026319;28;20337;-54
2023/12/01 04:13:59;;;;;;;16.63;11.20;;;;;;;1.73;100.00;146662.97;5032385;28;20267;-53
2023/12/01 04:16:26;;;;;;;15.23;10.13;;;;;;;1.57;100.00;146625.84;5007332;28;20227;-54
2023/12/01 04:18:55;;;;;;;15.80;10.90;;;;;;;1.57;100.00;146625.84;5017071;23;20235;-54
2023/12/01 04:21:23;;;;;;;15.07;11.13;;;;;;;1.60;100.00;146633.25;5000627;28;20250;-54
2023/12/01 04:23:52;;;;;;;16.50;11.23;;;;;;;1.58;100.00;146628.31;5005262;28;20697;-55
2023/12/01 04:26:19;;;;;;;18.87;12.60;;;;;;;1.52;100.00;146613.47;5012854;28;20224;-54
2023/12/01 04:28:45;;;;;;;21.27;13.17;;;;;;;1.51;100.00;146609.78;5016582;28;20227;-56
2023/12/01 04:31:12;;;;;;;18.17;11.27;;;;;;;1.39;100.00;146581.28;5246413;23;20236;-55
2023/12/01 04:33:38;;;;;;;19.63;12.33;;;;;;;1.40;100.00;146583.75;5028528;28;20633;-54
2023/12/01 04:36:06;;;;;;;19.53;11.83;;;;;;;1.41;100.00;146587.50;5038970;28;20211;-56
2023/12/01 04:38:35;;;;;;;18.43;11.37;;;;;;;1.43;100.00;146591.19;5040254;28;20227;-56
2023/12/01 04:41:02;;;;;;;15.33;10.50;;;;;;;1.44;100.00;146593.66;5037534;28;20733;-54
2023/12/01 04:43:30;;;;;;;17.93;11.23;;;;;;;1.41;100.00;146586.22;5036984;28;20231;-58
2023/12/01 04:45:57;;;;;;;18.10;12.37;;;;;;;1.41;100.00;146586.22;5037600;28;20235;-55
2023/12/01 04:48:23;;;;;;;15.93;10.83;;;;;;;1.41;100.00;146586.22;5036153;28;20266;-57
2023/12/01 04:50:50;;;;;;;16.27;10.57;;;;;;;1.41;100.00;146587.50;5035942;28;20245;-57
2023/12/01 04:53:17;;;;;;;15.00;10.47;;;;;;;1.43;100.00;146591.19;5036739;28;20227;-58
2023/12/01 04:55:46;;;;;;;16.27;11.53;;;;;;;1.46;100.00;146598.63;5039394;28;20226;-56
2023/12/01 04:58:13;;;;;;;18.27;11.17;;;;;;;1.46;100.00;146598.63;5033442;28;20227;-57
2023/12/01 05:00:40;;;;;;;15.13;10.57;;;;;;;1.46;100.00;146599.88;5037325;28;20231;-57
2023/12/01 05:03:09;;;;;;;16.43;10.40;;;;;;;1.49;100.00;146604.81;5034123;28;20230;-55
2023/12/01 05:05:36;;;;;;;15.10;10.80;;;;;;;1.52;100.00;146613.47;5037644;28;20702;-54
2023/12/01 05:08:05;;;;;;;17.23;11.07;;;;;;;1.49;100.00;146606.03;5037773;28;20795;-56
2023/12/01 05:10:34;;;;;;;15.63;10.90;;;;;;;1.50;100.00;146607.28;5034829;28;20355;-55
2023/12/01 05:13:04;;;;;;;17.40;11.13;;;;;;;1.49;100.00;146606.03;5034807;28;20242;-56
2023/12/01 05:15:32;;;;;;;16.50;11.57;;;;;;;1.51;100.00;146609.78;5037288;28;20266;-55
2023/12/01 05:18:00;;;;;;;16.80;10.43;;;;;;;1.54;100.00;146618.41;5037161;28;20223;-57
2023/12/01 05:20:28;;;;;;;14.40;10.27;;;;;;;1.57;100.00;146625.84;5035728;28;20227;-56
2023/12/01 05:22:56;;;;;;;16.50;10.70;;;;;;;1.56;100.00;146623.38;5037574;28;20327;-56
2023/12/01 05:25:25;;;;;;;14.50;10.70;;;;;;;1.54;100.00;146618.41;5037212;28;20272;-57
2023/12/01 05:27:54;;;;;;;15.40;10.40;;;;;;;1.56;100.00;146623.38;5040788;28;20310;-54
2023/12/01 05:30:24;;;;;;;17.97;10.47;;;;;;;1.57;100.00;146625.84;5035898;28;20654;-57
2023/12/01 05:32:52;;;;;;;16.67;11.70;;;;;;;1.56;100.00;146623.38;5037763;28;20235;-57
2023/12/01 05:35:19;;;;;;;17.20;11.47;;;;;;;1.56;100.00;146622.16;5035128;28;20220;-54
2023/12/01 05:37:48;;;;;;;17.53;11.27;;;;;;;1.58;100.00;146627.09;5037184;28;20232;-54
2023/12/01 05:40:17;;;;;;;18.17;11.37;;;;;;;1.55;100.00;146619.66;5036772;28;20219;-53
2023/12/01 05:42:45;;;;;;;17.40;11.23;;;;;;;1.53;100.00;146615.94;5037143;28;20315;-56
2023/12/01 05:45:12;;;;;;;16.57;10.77;;;;;;;1.54;100.00;146618.41;5035829;28;20212;-53
2023/12/01 05:47:43;;;;;;;15.20;11.07;;;;;;;1.54;100.00;146617.19;5036896;28;20223;-55
2023/12/01 05:50:13;;;;;;;14.20;10.40;;;;;;;1.63;100.00;146639.44;5034339;28;20262;-57
2023/12/01 05:52:41;;;;;;;15.33;10.20;;;;;;;1.60;100.00;146633.25;5039084;28;20220;-55
2023/12/01 05:55:14;;;;;;;15.83;10.57;;;;;;;1.50;100.00;146608.50;5033866;28;20274;-54
2023/12/01 05:57:43;;;;;;;13.60;10.17;;;;;;;1.29;100.00;146559.00;5037198;28;20237;-56
2023/12/01 06:00:12;;;;;;;14.53;10.53;;;;;;;1.28;100.00;146555.31;5033786;28;20236;-54
2023/12/01 06:02:41;;;;;;;15.93;10.97;;;;;;;1.22;100.00;146541.69;5037630;28;20333;-54
2023/12/01 06:05:08;;;;;;;19.97;11.63;;;;;;;1.14;100.00;146521.88;5035749;28;20227;-55
2023/12/01 06:07:35;;;;;;;18.37;12.33;;;;;;;1.05;100.00;146500.88;5037565;28;20317;-54
2023/12/01 06:10:02;;;;;;;16.60;11.83;;;;;;;1.06;100.00;146502.16;5035885;28;20241;-56
2023/12/01 06:12:28;;;;;;;18.43;12.10;;;;;;;1.08;100.00;146508.31;5036433;28;20242;-57
2023/12/01 06:14:55;;;;;;;22.57;13.17;;;;;;;1.09;100.00;146509.53;5035379;28;20712;-55
2023/12/01 06:17:22;;;;;;;16.60;11.00;;;;;;;1.13;100.00;146519.41;5031365;28;20236;-54
2023/12/01 06:19:50;;;;;;;16.17;10.70;;;;;;;1.19;100.00;146534.25;5035953;28;20231;-57
2023/12/01 06:22:16;;;;;;;18.03;12.13;;;;;;;1.23;100.00;146542.94;5033299;28;20273;-57
2023/12/01 06:24:43;;;;;;;19.07;12.10;;;;;;;1.22;100.00;146541.69;5036156;28;20239;-53
2023/12/01 06:27:11;;;;;;;16.60;11.13;;;;;;;1.20;100.00;146536.75;5022262;28;20223;-56
2023/12/01 06:29:38;;;;;;;17.90;11.50;;;;;;;1.21;100.00;146539.22;5038151;28;20610;-56
2023/12/01 06:32:05;;;;;;;18.67;11.57;;;;;;;1.14;100.00;146521.88;5033345;28;20709;-56
2023/12/01 06:34:32;;;;;;;16.40;11.37;;;;;;;1.15;100.00;146524.38;5039237;28;20254;-54
2023/12/01 06:37:00;;;;;;;17.37;10.77;;;;;;;1.17;100.00;146529.31;5041522;28;20624;-55
2023/12/01 06:39:28;;;;;;;16.03;10.47;;;;;;;1.18;100.00;146533.06;5032938;28;20235;-57
2023/12/01 06:41:55;;;;;;;14.53;10.30;;;;;;;1.22;100.00;146540.47;5036398;28;20236;-54
2023/12/01 06:44:22;;;;;;;17.23;10.73;;;;;;;1.25;100.00;146549.13;5035208;28;20707;-55
2023/12/01 06:46:49;;;;;;;16.80;11.47;;;;;;;1.24;100.00;146545.41;5034891;28;20262;-55
2023/12/01 06:49:16;;;;;;;19.03;12.70;;;;;;;1.19;100.00;146534.25;5034573;28;20948;-54
2023/12/01 06:51:43;;;;;;;20.10;12.53;;;;;;;1.20;100.00;146535.53;5035203;28;20231;-55
2023/12/01 06:54:12;;;;;;;18.57;11.37;;;;;;;1.16;100.00;146528.09;5032848;28;20228;-54
2023/12/01 06:56:38;;;;;;;19.63;13.07;;;;;;;1.24;100.00;146546.63;5037906;28;20227;-53
2023/12/01 06:59:05;;;;;;;18.40;12.77;;;;;;;1.05;100.00;146500.88;5030203;28;20251;-55
2023/12/01 07:01:33;;;;;;;19.10;12.57;;;;;;;1.01;100.00;146492.25;5034419;28;20227;-54
2023/12/01 07:04:07;;;;;;;17.43;13.80;;;;;;;1.01;100.00;146490.97;5032231;28;20467;-56
2023/12/01 07:06:34;;;;;;;18.50;12.50;;;;;;;0.96;100.00;146479.88;5036300;28;20238;-53
2023/12/01 07:09:01;;;;;;;14.37;11.13;;;;;;;0.97;100.00;146481.09;5033701;28;20713;-57
2023/12/01 07:11:29;;;;;;;35.60;24.77;;;;;;;0.96;100.00;146478.63;5034743;28;20231;-53
2023/12/01 07:13:56;;;;;;;25.10;16.43;;;;;;;0.99;100.00;146486.03;5034815;28;20296;-55
2023/12/01 07:16:22;;;;;;;19.47;12.13;;;;;;;0.99;100.00;146486.03;5033378;28;20595;-52
2023/12/01 07:18:49;;;;;;;18.70;12.20;;;;;;;0.90;100.00;146465.03;5037393;28;20235;-55
2023/12/01 07:21:15;;;;;;;16.80;11.67;;;;;;;0.93;100.00;146471.19;5031255;28;20459;-54
2023/12/01 07:23:44;;;;;;;19.43;12.30;;;;;;;0.94;100.00;146473.66;5034496;28;20235;-52
2023/12/01 07:26:10;;;;;;;17.10;12.13;;;;;;;0.99;100.00;146487.28;5033476;28;20274;-52
2023/12/01 07:28:38;;;;;;;22.37;13.97;;;;;;;1.08;100.00;146507.03;5035097;28;20223;-53
2023/12/01 07:31:05;;;;;;;26.33;17.90;;;;;;;1.10;100.00;146512.00;5031725;28;20800;-57
2023/12/01 07:33:32;;;;;;;29.97;23.63;;;;;;;1.06;100.00;146503.34;5035698;28;20232;-56
2023/12/01 07:35:58;;;;;;;24.80;18.43;;;;;;;1.09;100.00;146510.78;5037508;28;20224;-57
2023/12/01 07:38:25;;;;;;;18.20;12.70;;;;;;;1.12;100.00;146518.19;5032460;28;20341;-54
2023/12/01 07:40:52;;;;;;;16.97;10.47;;;;;;;1.13;100.00;146520.69;5032017;28;20232;-57
2023/12/01 07:43:19;;;;;;;15.27;9.43;;;;;;;1.12;100.00;146516.94;5032187;28;20231;-56
2023/12/01 07:45:47;;;;;;;16.93;11.63;;;;;;;1.18;100.00;146533.06;5034652;28;20739;-57
2023/12/01 07:48:14;;;;;;;17.73;12.60;;;;;;;1.21;100.00;146538.00;5031108;28;20224;-57
2023/12/01 07:50:40;;;;;;;28.77;22.57;;;;;;;1.23;100.00;146544.16;5037613;28;20223;-57
2023/12/01 07:53:08;;;;;;;15.20;10.37;;;;;;;1.05;100.00;146499.66;5033845;28;20980;-56
2023/12/01 07:55:34;;;;;;;15.43;10.07;;;;;;;1.02;100.00;146494.72;5033811;28;20230;-56
2023/12/01 07:58:01;;;;;;;19.67;12.67;;;;;;;0.99;100.00;146487.28;5035515;28;20223;-56
2023/12/01 08:00:28;;;;;;;16.60;11.27;;;;;;;0.97;100.00;146482.34;5031704;28;20219;-56
2023/12/01 08:02:57;;;;;;;13.20;9.13;;;;;;;1.14;100.00;146521.88;5018084;28;20698;-56
2023/12/01 08:05:24;;;;;;;14.23;10.17;;;;;;;1.28;100.00;146556.53;5031484;28;20237;-58
2023/12/01 08:07:52;;;;;;;13.67;9.00;;;;;;;1.27;100.00;146554.06;5034814;28;20578;-53
2023/12/01 08:10:20;;;;;;;19.43;15.03;;;;;;;1.41;100.00;146586.22;5033113;28;20226;-53
2023/12/01 08:12:48;;;;;;;13.87;9.30;;;;;;;1.56;100.00;146622.16;5036498;28;20613;-52
2023/12/01 08:15:15;;;;;;;19.83;10.47;;;;;;;1.73;100.00;146662.97;5032113;28;20220;-53
2023/12/01 08:17:43;;;;;;;13.37;9.03;;;;;;;1.81;100.00;146681.53;5033250;28;20250;-54
2023/12/01 08:20:12;;;;;;;13.73;8.83;;;;;;;1.88;100.00;146700.09;5032441;28;20219;-52
2023/12/01 08:22:39;;;;;;;22.67;17.30;;;;;;;2.01;100.00;146729.81;5033472;28;20247;-52
2023/12/01 08:25:07;;;;;;;20.40;14.63;;;;;;;2.11;100.00;146754.59;5028293;28;20228;-53
2023/12/01 08:27:34;;;;;;;15.73;10.50;;;;;;;2.18;100.00;146771.88;5000599;28;20247;-54
2023/12/01 08:30:02;;;;;;;13.67;8.73;;;;;;;2.30;100.00;146799.13;5035134;28;20234;-54
2023/12/01 08:32:28;;;;;;;20.03;12.93;;;;;;;2.28;100.00;146794.16;5032884;28;20724;-53
2023/12/01 08:34:55;;;;;;;21.67;14.20;;;;;;;2.12;100.00;146755.81;5034365;28;20241;-56
2023/12/01 08:37:23;;;;;;;22.83;14.17;;;;;;;1.90;100.00;146705.06;5032614;28;20241;-54
2023/12/01 08:39:50;;;;;;;21.03;14.20;;;;;;;1.94;100.00;146713.69;5034948;28;20235;-53
2023/12/01 08:42:18;;;;;;;25.57;15.90;;;;;;;1.84;100.00;146688.94;5031352;28;20235;-53
2023/12/01 08:44:44;;;;;;;30.33;18.20;;;;;;;1.91;100.00;146707.53;5034171;28;20228;-52
2023/12/01 08:47:13;;;;;;;30.93;20.47;;;;;;;1.99;100.00;146726.09;5030742;28;20223;-53
2023/12/01 08:49:40;;;;;;;29.43;20.53;;;;;;;2.10;100.00;146752.09;5035994;28;20232;-55
2023/12/01 08:52:07;;;;;;;23.13;14.63;;;;;;;2.13;100.00;146759.50;5032324;28;20231;-53
2023/12/01 08:54:35;;;;;;;21.37;14.53;;;;;;;2.12;100.00;146755.81;5036702;28;20231;-54
2023/12/01 08:57:01;;;;;;;25.20;14.20;;;;;;;2.07;100.00;146744.69;5035202;28;20239;-52
2023/12/01 08:59:28;;;;;;;20.00;13.57;;;;;;;1.99;100.00;146724.88;5031615;28;20227;-53
2023/12/01 09:01:55;;;;;;;32.97;19.00;;;;;;;2.08;100.00;146747.16;5034067;28;20231;-53
2023/12/01 09:04:22;;;;;;;28.50;16.60;;;;;;;1.98;100.00;146722.38;5031760;28;20226;-54
2023/12/01 09:06:48;;;;;;;29.50;15.90;;;;;;;1.87;100.00;146696.38;5034748;28;20281;-56
2023/12/01 09:09:15;;;;;;;26.60;18.10;;;;;;;1.68;100.00;146651.81;5017943;28;20225;-56
2023/12/01 09:11:43;;;;;;;28.57;19.47;;;;;;;1.66;100.00;146645.66;5033726;28;20231;-53
2023/12/01 09:14:09;;;;;;;31.00;21.43;;;;;;;1.68;100.00;146651.81;5030365;28;20219;-54
2023/12/01 09:16:36;;;;;;;28.43;19.23;;;;;;;1.71;100.00;146659.22;5036229;28;20241;-55
2023/12/01 09:19:03;;;;;;;45.57;29.03;;;;;;;1.72;100.00;146660.50;5035114;28;20230;-55
2023/12/01 09:21:29;;;;;;;26.53;17.80;;;;;;;1.73;100.00;146662.97;5036169;28;20246;-55
2023/12/01 09:23:56;;;;;;;24.33;15.53;;;;;;;1.82;100.00;146684.00;5036108;28;20232;-53
2023/12/01 09:26:22;;;;;;;23.47;15.73;;;;;;;1.82;100.00;146684.00;5034813;28;20252;-55
2023/12/01 09:28:51;;;;;;;23.20;15.73;;;;;;;1.87;100.00;146696.38;5029851;28;20227;-55
2023/12/01 09:31:18;;;;;;;21.77;13.30;;;;;;;1.96;100.00;146717.44;5032970;28;20232;-57
2023/12/01 09:33:44;;;;;;;20.80;12.43;;;;;;;1.92;100.00;146708.75;5038590;28;20230;-53
2023/12/01 09:36:12;;;;;;;18.73;12.23;;;;;;;1.96;100.00;146717.44;5033669;28;20229;-56
2023/12/01 09:38:38;;;;;;;16.37;11.43;;;;;;;1.93;100.00;146711.22;5038829;28;20587;-52
2023/12/01 09:41:05;;;;;;;15.30;10.80;;;;;;;1.98;100.00;146722.38;5034846;28;20235;-55
2023/12/01 09:43:32;;;;;;;17.20;11.30;;;;;;;2.07;100.00;146744.69;5036272;28;20238;-54
2023/12/01 09:46:01;;;;;;;15.13;11.03;;;;;;;2.11;100.00;146754.59;5038719;28;20242;-53
2023/12/01 09:48:34;;;;;;;16.90;10.83;;;;;;;2.20;100.00;146776.81;5037704;28;20234;-54
2023/12/01 09:51:00;;;;;;;16.03;10.70;;;;;;;2.35;100.00;146811.50;5038336;28;20307;-55
2023/12/01 09:53:27;;;;;;;15.10;9.90;;;;;;;2.31;100.00;146801.59;5023824;28;20220;-55
2023/12/01 09:55:54;;;;;;;14.40;9.43;;;;;;;2.19;100.00;146773.13;5038698;28;20683;-55
2023/12/01 09:58:22;;;;;;;11.30;8.30;;;;;;;2.22;100.00;146780.56;5034583;28;20215;-53
2023/12/01 10:00:49;;;;;;;14.13;8.97;;;;;;;2.11;100.00;146753.31;5036673;28;20238;-53
2023/12/01 10:03:17;;;;;;;12.47;8.30;;;;;;;2.18;100.00;146770.66;5033020;28;20209;-56
2023/12/01 10:05:43;;;;;;;11.97;8.20;;;;;;;2.18;100.00;146771.88;5036407;28;20242;-53
2023/12/01 10:08:11;;;;;;;12.77;8.73;;;;;;;2.26;100.00;146790.47;5034931;28;20212;-55
2023/12/01 10:10:38;;;;;;;10.07;7.80;;;;;;;2.33;100.00;146806.53;5034774;28;20228;-55
2023/12/01 10:13:07;;;;;;;13.23;9.33;;;;;;;2.46;100.00;146837.53;5033868;28;20219;-53
2023/12/01 10:15:37;;;;;;;14.53;8.80;;;;;;;2.63;100.00;146878.38;5035497;28;20229;-53
2023/12/01 10:18:12;;;;;;;12.57;8.63;;;;;;;2.68;100.00;146889.50;5035838;28;20234;-54
2023/12/01 10:20:40;;;;;;;12.23;8.83;;;;;;;2.80;100.00;146920.50;5036809;28;20238;-52
2023/12/01 10:23:18;;;;;;;21.17;13.07;;;;;;;2.74;100.00;146905.63;5033188;28;20858;-54
2023/12/01 10:25:47;;;;;;;12.83;9.13;;;;;;;2.84;100.00;146927.94;5037518;28;20293;-56
2023/12/01 10:28:14;;;;;;;13.63;9.17;;;;;;;2.83;100.00;146925.44;5033635;28;20223;-56
2023/12/01 10:31:02;;;;;;;14.30;10.00;;;;;;;2.95;100.00;146955.19;5039536;28;20713;-52
2023/12/01 10:33:29;;;;;;;12.20;9.43;;;;;;;3.10;100.00;146991.09;5033062;28;20320;-55
2023/12/01 10:36:01;;;;;;;13.80;9.40;;;;;;;3.15;100.00;147002.28;5036620;28;20230;-54
2023/12/01 10:38:29;;;;;;;14.20;9.37;;;;;;;3.15;100.00;147002.28;5035059;28;20310;-54
2023/12/01 10:40:57;;;;;;;13.43;9.40;;;;;;;3.00;100.00;146967.56;5034480;28;20594;-56
2023/12/01 10:43:24;;;;;;;13.87;9.07;;;;;;;2.92;100.00;146947.75;5033216;28;20242;-55
2023/12/01 10:45:50;;;;;;;12.00;9.10;;;;;;;2.90;100.00;146944.00;5039206;28;20594;-54
2023/12/01 10:48:19;;;;;;;16.37;10.90;;;;;;;2.77;100.00;146913.06;5033942;28;20230;-53
2023/12/01 10:50:47;;;;;;;16.27;11.23;;;;;;;2.66;100.00;146885.81;5037809;28;20255;-55
2023/12/01 10:53:16;;;;;;;16.27;11.07;;;;;;;2.75;100.00;146906.84;5034594;28;20214;-53
2023/12/01 10:55:46;;;;;;;17.03;11.17;;;;;;;2.67;100.00;146888.28;5034148;28;20286;-54
2023/12/01 10:58:20;;;;;;;17.03;11.63;;;;;;;2.80;100.00;146919.25;5029985;28;20564;-53
2023/12/01 11:00:48;;;;;;;21.23;12.77;;;;;;;2.80;100.00;146919.25;5035821;28;20601;-55
2023/12/01 11:03:19;;;;;;;20.30;13.67;;;;;;;2.80;100.00;146919.25;5032537;28;20223;-56
2023/12/01 11:05:48;;;;;;;17.03;11.97;;;;;;;2.80;100.00;146919.25;5037834;28;20235;-54
2023/12/01 11:08:27;;;;;;;18.70;11.97;;;;;;;2.87;100.00;146935.38;5033019;28;20224;-53
2023/12/01 11:11:00;;;;;;;18.63;12.63;;;;;;;2.93;100.00;146951.44;5037407;28;20227;-55
2023/12/01 11:13:36;;;;;;;14.50;11.13;;;;;;;2.83;100.00;146926.66;5036015;28;20951;-56
2023/12/01 11:16:07;;;;;;;15.90;11.00;;;;;;;2.86;100.00;146932.88;5036909;28;20258;-56